Time;durP1;ratioP1;P1;durP2;ratioP2;P2;SDS_P1;SDS_P2;PMS_P1;PMS_P2;Temp;Humidity;BMP_temperature;BMP_pressure;BME280_temperature;BME280_humidity;BME280_pressure;Samples;Min_cycle;Max_cycle;Signal;HPM_P1;HPM_P2
2022/03/13 00:01:42;;;;;;;4.40;3.10;;;;;;;;;;5074558;28;20027;-54
2022/03/13 00:04:09;;;;;;;5.80;3.30;;;;;;;;;;5073661;28;20028;-50
2022/03/13 00:06:37;;;;;;;5.55;3.83;;;;;;;;;;5074330;28;20032;-52
2022/03/13 00:09:05;;;;;;;4.70;2.85;;;;;;;;;;5080409;28;20024;-51
2022/03/13 00:11:31;;;;;;;4.50;3.10;;;;;;;;;;5093985;28;20059;-52
2022/03/13 00:13:58;;;;;;;5.45;3.63;;;;;;;;;;5094319;28;20036;-48
2022/03/13 00:16:25;;;;;;;4.95;3.13;;;;;;;;;;5093525;28;20068;-52
2022/03/13 00:18:52;;;;;;;4.35;2.75;;;;;;;;;;5093757;28;20085;-49
2022/03/13 00:21:19;;;;;;;5.05;3.70;;;;;;;;;;5092913;28;20032;-51
2022/03/13 00:23:46;;;;;;;4.93;3.65;;;;;;;;;;5093999;28;20358;-53
2022/03/13 00:26:13;;;;;;;6.57;3.53;;;;;;;;;;5092463;28;20048;-51
2022/03/13 00:28:39;;;;;;;5.35;3.78;;;;;;;;;;5076971;28;20081;-49
2022/03/13 00:31:06;;;;;;;4.10;3.20;;;;;;;;;;5093252;28;20027;-50
2022/03/13 00:33:32;;;;;;;4.43;3.03;;;;;;;;;;5094076;28;20477;-50
2022/03/13 00:35:59;;;;;;;3.75;2.65;;;;;;;;;;5093993;28;20024;-48
2022/03/13 00:38:25;;;;;;;3.60;2.83;;;;;;;;;;5092798;28;20132;-52
2022/03/13 00:40:55;;;;;;;5.07;3.38;;;;;;;;;;5073595;28;20024;-50
2022/03/13 00:43:22;;;;;;;5.60;3.38;;;;;;;;;;5072876;28;20163;-52
2022/03/13 00:45:48;;;;;;;5.03;3.08;;;;;;;;;;5073710;28;20491;-53
2022/03/13 00:48:14;;;;;;;4.90;3.53;;;;;;;;;;5072638;28;20031;-52
2022/03/13 00:50:40;;;;;;;4.47;3.28;;;;;;;;;;5091869;28;20063;-49
2022/03/13 00:53:06;;;;;;;5.60;3.28;;;;;;;;;;5092910;28;20069;-52
2022/03/13 00:55:32;;;;;;;5.68;3.28;;;;;;;;;;5074379;28;20031;-54
2022/03/13 00:57:58;;;;;;;4.47;3.10;;;;;;;;;;5075360;28;20110;-49
2022/03/13 01:00:24;;;;;;;6.65;3.17;;;;;;;;;;5087020;28;20108;-52
2022/03/13 01:02:50;;;;;;;4.05;2.85;;;;;;;;;;5094288;28;20028;-52
2022/03/13 01:05:21;;;;;;;5.50;3.50;;;;;;;;;;5093162;28;20058;-54
2022/03/13 01:07:48;;;;;;;5.78;3.47;;;;;;;;;;5093604;28;20023;-54
2022/03/13 01:10:14;;;;;;;4.93;3.33;;;;;;;;;;5090938;28;20039;-53
2022/03/13 01:12:40;;;;;;;4.07;3.17;;;;;;;;;;5092877;28;20032;-52
2022/03/13 01:15:08;;;;;;;4.22;3.08;;;;;;;;;;5092512;28;20085;-54
2022/03/13 01:17:34;;;;;;;8.00;3.53;;;;;;;;;;5093654;28;20089;-51
2022/03/13 01:20:02;;;;;;;4.45;3.30;;;;;;;;;;5077603;28;20168;-51
2022/03/13 01:22:28;;;;;;;3.95;2.95;;;;;;;;;;5054648;28;20033;-53
2022/03/13 01:24:54;;;;;;;4.85;3.20;;;;;;;;;;5083704;28;20473;-51
2022/03/13 01:27:20;;;;;;;4.93;3.22;;;;;;;;;;5092496;28;20028;-53
2022/03/13 01:29:47;;;;;;;4.68;3.15;;;;;;;;;;5092500;28;20024;-53
2022/03/13 01:32:13;;;;;;;6.00;3.60;;;;;;;;;;5091992;28;20028;-53
2022/03/13 01:34:44;;;;;;;4.80;3.60;;;;;;;;;;5093087;28;20032;-52
2022/03/13 01:37:20;;;;;;;4.78;3.78;;;;;;;;;;5092212;28;20133;-50
2022/03/13 01:39:48;;;;;;;5.15;3.72;;;;;;;;;;5079194;28;20028;-50
2022/03/13 01:42:14;;;;;;;4.85;3.63;;;;;;;;;;5071407;28;20037;-50
2022/03/13 01:44:40;;;;;;;4.40;2.95;;;;;;;;;;5084114;28;20508;-51
2022/03/13 01:47:07;;;;;;;4.20;3.13;;;;;;;;;;5091664;28;20036;-53
2022/03/13 01:49:34;;;;;;;4.43;2.90;;;;;;;;;;5092176;28;20032;-51
2022/03/13 01:52:01;;;;;;;3.67;2.67;;;;;;;;;;5092193;28;20036;-53
2022/03/13 01:54:30;;;;;;;4.93;3.10;;;;;;;;;;5092082;28;20016;-51
2022/03/13 01:56:57;;;;;;;4.57;3.10;;;;;;;;;;5090112;28;20456;-51
2022/03/13 01:59:23;;;;;;;4.68;3.83;;;;;;;;;;5080475;28;20056;-53
2022/03/13 02:01:49;;;;;;;4.90;3.05;;;;;;;;;;5072661;28;20024;-50
2022/03/13 02:04:22;;;;;;;4.05;2.90;;;;;;;;;;5071998;28;20028;-53
2022/03/13 02:06:50;;;;;;;6.07;4.22;;;;;;;;;;5072181;28;20033;-51
2022/03/13 02:09:16;;;;;;;5.60;3.45;;;;;;;;;;5080969;28;20020;-54
2022/03/13 02:11:42;;;;;;;3.70;2.92;;;;;;;;;;5092287;28;20073;-52
2022/03/13 02:14:11;;;;;;;4.47;3.53;;;;;;;;;;5091057;28;20032;-53
2022/03/13 02:16:37;;;;;;;4.22;3.08;;;;;;;;;;5092229;28;20110;-53
2022/03/13 02:19:05;;;;;;;3.85;3.13;;;;;;;;;;5091223;28;20024;-51
2022/03/13 02:21:31;;;;;;;4.55;3.33;;;;;;;;;;5092205;28;20373;-53
2022/03/13 02:24:01;;;;;;;4.15;2.80;;;;;;;;;;5092162;28;20024;-54
2022/03/13 02:26:28;;;;;;;4.00;2.78;;;;;;;;;;5071975;28;20230;-52
2022/03/13 02:28:55;;;;;;;6.18;3.13;;;;;;;;;;5077403;28;20031;-50
2022/03/13 02:31:26;;;;;;;3.92;2.83;;;;;;;;;;5091347;28;20027;-53
2022/03/13 02:33:53;;;;;;;3.78;2.67;;;;;;;;;;5091945;28;20028;-50
2022/03/13 02:36:43;;;;;;;4.85;3.42;;;;;;;;;;5091044;28;20028;-54
2022/03/13 02:39:10;;;;;;;4.35;2.70;;;;;;;;;;5070721;28;20071;-52
2022/03/13 02:41:37;;;;;;;6.38;3.30;;;;;;;;;;5082844;28;20024;-50
2022/03/13 02:44:04;;;;;;;4.63;3.30;;;;;;;;;;5085206;28;20438;-51
2022/03/13 02:46:48;;;;;;;4.35;3.13;;;;;;;;;;5071538;28;20028;-54
2022/03/13 02:49:19;;;;;;;4.22;3.15;;;;;;;;;;5078838;28;20103;-54
2022/03/13 02:51:46;;;;;;;3.50;2.50;;;;;;;;;;5091969;28;20028;-53
2022/03/13 02:54:13;;;;;;;4.28;2.97;;;;;;;;;;5073258;28;20051;-51
2022/03/13 02:56:39;;;;;;;4.32;2.97;;;;;;;;;;5071674;28;20032;-54
2022/03/13 02:59:05;;;;;;;3.70;3.05;;;;;;;;;;5071612;28;20048;-53
2022/03/13 03:01:31;;;;;;;6.70;3.50;;;;;;;;;;5071369;28;20028;-53
2022/03/13 03:03:58;;;;;;;4.50;2.95;;;;;;;;;;5071573;28;20051;-54
2022/03/13 03:06:25;;;;;;;4.80;3.17;;;;;;;;;;5070688;28;20071;-54
2022/03/13 03:08:54;;;;;;;4.53;2.90;;;;;;;;;;5071824;28;20135;-53
2022/03/13 03:11:20;;;;;;;4.05;3.28;;;;;;;;;;5070519;28;20511;-51
2022/03/13 03:13:46;;;;;;;4.30;2.53;;;;;;;;;;5073739;28;20047;-53
2022/03/13 03:16:12;;;;;;;3.35;2.60;;;;;;;;;;5074043;28;20052;-51
2022/03/13 03:18:38;;;;;;;4.00;2.78;;;;;;;;;;5077672;28;20021;-54
2022/03/13 03:21:04;;;;;;;3.67;2.95;;;;;;;;;;5095557;28;20039;-52
2022/03/13 03:23:30;;;;;;;4.18;2.90;;;;;;;;;;5095000;28;20032;-53
2022/03/13 03:25:56;;;;;;;5.30;2.72;;;;;;;;;;5095529;28;20116;-53
2022/03/13 03:28:23;;;;;;;3.60;2.75;;;;;;;;;;5094096;28;20060;-50
2022/03/13 03:30:49;;;;;;;3.70;2.78;;;;;;;;;;5080139;28;20054;-53
2022/03/13 03:33:15;;;;;;;3.63;2.67;;;;;;;;;;5094347;28;20032;-51
2022/03/13 03:35:41;;;;;;;4.32;2.75;;;;;;;;;;5095393;28;20062;-50
2022/03/13 03:38:07;;;;;;;4.13;3.13;;;;;;;;;;5094952;28;20081;-51
2022/03/13 03:40:34;;;;;;;4.28;2.70;;;;;;;;;;5076521;28;20028;-52
2022/03/13 03:43:02;;;;;;;3.50;2.85;;;;;;;;;;5074730;28;20496;-53
2022/03/13 03:45:28;;;;;;;3.65;2.92;;;;;;;;;;5092448;28;20579;-52
2022/03/13 03:47:55;;;;;;;3.85;2.97;;;;;;;;;;5094952;28;20094;-51
2022/03/13 03:50:21;;;;;;;4.10;3.10;;;;;;;;;;5077896;28;20028;-51
2022/03/13 03:52:47;;;;;;;5.07;3.33;;;;;;;;;;5074756;28;20029;-52
2022/03/13 03:55:13;;;;;;;4.32;3.10;;;;;;;;;;5073738;28;20024;-50
2022/03/13 03:57:39;;;;;;;4.43;3.13;;;;;;;;;;5074618;28;20110;-51
2022/03/13 04:00:06;;;;;;;3.83;2.90;;;;;;;;;;5075365;28;20028;-51
2022/03/13 04:02:32;;;;;;;3.53;2.50;;;;;;;;;;5074068;28;20051;-52
2022/03/13 04:04:59;;;;;;;4.22;2.67;;;;;;;;;;5074528;28;20024;-53
2022/03/13 04:07:25;;;;;;;3.50;2.55;;;;;;;;;;5073566;28;20035;-51
2022/03/13 04:09:51;;;;;;;4.32;2.78;;;;;;;;;;5089819;28;20028;-53
2022/03/13 04:12:18;;;;;;;4.03;2.90;;;;;;;;;;5093579;28;20385;-50
2022/03/13 04:14:44;;;;;;;4.35;3.42;;;;;;;;;;5094404;28;20103;-53
2022/03/13 04:17:10;;;;;;;4.30;2.92;;;;;;;;;;5093419;28;20094;-48
2022/03/13 04:19:36;;;;;;;4.05;2.75;;;;;;;;;;5080898;28;20029;-51
2022/03/13 04:22:02;;;;;;;3.88;3.05;;;;;;;;;;5089359;28;20039;-54
2022/03/13 04:24:31;;;;;;;4.97;3.35;;;;;;;;;;5093082;28;20020;-53
2022/03/13 04:26:57;;;;;;;4.57;3.13;;;;;;;;;;5094388;28;20115;-54
2022/03/13 04:29:23;;;;;;;4.82;3.00;;;;;;;;;;5093233;28;20020;-52
2022/03/13 04:31:52;;;;;;;4.80;3.05;;;;;;;;;;5094108;28;20027;-50
2022/03/13 04:34:18;;;;;;;4.53;3.08;;;;;;;;;;5093481;28;20024;-53
2022/03/13 04:36:44;;;;;;;5.53;3.60;;;;;;;;;;5094209;28;20373;-49
2022/03/13 04:39:10;;;;;;;4.50;3.03;;;;;;;;;;5093615;28;20036;-52
2022/03/13 04:41:39;;;;;;;3.85;3.15;;;;;;;;;;5094090;28;20020;-53
2022/03/13 04:44:07;;;;;;;5.22;3.10;;;;;;;;;;5087001;28;20028;-51
2022/03/13 04:46:33;;;;;;;4.57;3.20;;;;;;;;;;5073460;28;20031;-51
2022/03/13 04:48:59;;;;;;;4.05;2.90;;;;;;;;;;5073694;28;20025;-53
2022/03/13 04:51:25;;;;;;;3.95;3.00;;;;;;;;;;5072790;28;20103;-50
2022/03/13 04:53:51;;;;;;;4.45;3.13;;;;;;;;;;5073544;28;20035;-53
2022/03/13 04:56:17;;;;;;;5.45;2.95;;;;;;;;;;5072827;28;20032;-53
2022/03/13 04:58:43;;;;;;;5.38;2.92;;;;;;;;;;5073557;28;20474;-51
2022/03/13 05:01:09;;;;;;;4.60;3.13;;;;;;;;;;5072950;28;20025;-57
2022/03/13 05:03:35;;;;;;;4.97;3.30;;;;;;;;;;5073053;28;20048;-52
2022/03/13 05:06:05;;;;;;;5.68;3.33;;;;;;;;;;5073351;28;20108;-52
2022/03/13 05:08:31;;;;;;;4.18;3.00;;;;;;;;;;5072405;28;20012;-52
2022/03/13 05:10:59;;;;;;;4.35;2.92;;;;;;;;;;5072968;28;20025;-52
2022/03/13 05:13:25;;;;;;;8.27;3.00;;;;;;;;;;5072253;28;20115;-52
2022/03/13 05:15:52;;;;;;;4.22;2.90;;;;;;;;;;5072805;28;20414;-51
2022/03/13 05:18:18;;;;;;;4.50;2.80;;;;;;;;;;5072099;28;20051;-50
2022/03/13 05:20:45;;;;;;;3.92;3.13;;;;;;;;;;5055057;28;20020;-49
2022/03/13 05:23:11;;;;;;;5.70;3.50;;;;;;;;;;5072475;28;20138;-47
2022/03/13 05:25:38;;;;;;;4.57;3.30;;;;;;;;;;5072423;28;20028;-50
2022/03/13 05:28:04;;;;;;;3.83;2.88;;;;;;;;;;5072959;28;20021;-52
2022/03/13 05:30:30;;;;;;;4.60;3.17;;;;;;;;;;5072021;28;20091;-48
2022/03/13 05:32:57;;;;;;;4.28;2.92;;;;;;;;;;5072564;28;20060;-49
2022/03/13 05:35:23;;;;;;;4.70;2.97;;;;;;;;;;5070921;28;20472;-50
2022/03/13 05:37:49;;;;;;;3.65;2.65;;;;;;;;;;5072713;28;20028;-50
2022/03/13 05:40:16;;;;;;;4.60;3.15;;;;;;;;;;5071835;28;20020;-50
2022/03/13 05:42:46;;;;;;;4.05;2.80;;;;;;;;;;5072847;28;20035;-50
2022/03/13 05:45:13;;;;;;;3.47;2.60;;;;;;;;;;5087545;28;20050;-50
2022/03/13 05:47:43;;;;;;;4.70;3.17;;;;;;;;;;5092505;28;20039;-53
2022/03/13 05:50:09;;;;;;;3.97;2.85;;;;;;;;;;5092462;28;20028;-51
2022/03/13 05:52:36;;;;;;;3.78;2.60;;;;;;;;;;5092305;28;20074;-52
2022/03/13 05:55:02;;;;;;;7.18;2.70;;;;;;;;;;5082428;28;20077;-48
2022/03/13 05:57:28;;;;;;;3.75;3.13;;;;;;;;;;5079133;28;20104;-51
2022/03/13 05:59:54;;;;;;;4.93;3.22;;;;;;;;;;5080529;28;20502;-51
2022/03/13 06:02:21;;;;;;;3.20;2.70;;;;;;;;;;5081562;28;20031;-49
2022/03/13 06:04:47;;;;;;;3.40;2.70;;;;;;;;;;5080518;28;20034;-51
2022/03/13 06:07:13;;;;;;;4.63;2.65;;;;;;;;;;5079490;28;20404;-50
2022/03/13 06:09:39;;;;;;;3.67;2.70;;;;;;;;;;5082282;28;20089;-49
2022/03/13 06:12:07;;;;;;;3.72;2.50;;;;;;;;;;5080133;28;20067;-51
2022/03/13 06:14:33;;;;;;;4.93;2.83;;;;;;;;;;5079451;28;20373;-51
2022/03/13 06:16:59;;;;;;;3.95;2.72;;;;;;;;;;5063480;28;20055;-51
2022/03/13 06:19:25;;;;;;;3.75;2.97;;;;;;;;;;5075996;28;20052;-50
2022/03/13 06:21:52;;;;;;;4.10;2.97;;;;;;;;;;5071870;28;20029;-51
2022/03/13 06:24:19;;;;;;;2.55;2.30;;;;;;;;;;5075878;28;20028;-53
2022/03/13 06:26:45;;;;;;;3.28;2.65;;;;;;;;;;5086745;28;20451;-51
2022/03/13 06:29:13;;;;;;;4.18;3.03;;;;;;;;;;5080690;28;20542;-46
2022/03/13 06:31:39;;;;;;;4.07;2.85;;;;;;;;;;5079418;28;20099;-51
2022/03/13 06:34:05;;;;;;;3.05;2.40;;;;;;;;;;5084226;28;20036;-56
2022/03/13 06:36:31;;;;;;;3.55;2.85;;;;;;;;;;5062054;28;20083;-51
2022/03/13 06:38:58;;;;;;;2.75;2.22;;;;;;;;;;5079488;28;20024;-55
2022/03/13 06:41:24;;;;;;;3.35;2.42;;;;;;;;;;5084237;28;20024;-51
2022/03/13 06:43:51;;;;;;;3.03;2.15;;;;;;;;;;5086973;28;20025;-51
2022/03/13 06:46:17;;;;;;;3.17;2.38;;;;;;;;;;5070843;28;20029;-46
2022/03/13 06:48:43;;;;;;;3.50;2.38;;;;;;;;;;5075922;28;20100;-53
2022/03/13 06:51:09;;;;;;;5.18;2.85;;;;;;;;;;5075534;28;20150;-63
2022/03/13 06:53:35;;;;;;;5.20;3.05;;;;;;;;;;5075220;28;20068;-54
2022/03/13 06:56:01;;;;;;;8.07;2.90;;;;;;;;;;5075618;28;20025;-50
2022/03/13 06:58:27;;;;;;;3.88;2.85;;;;;;;;;;5077262;28;20024;-48
2022/03/13 07:00:53;;;;;;;3.83;2.58;;;;;;;;;;5085006;28;20085;-48
2022/03/13 07:03:19;;;;;;;3.35;2.83;;;;;;;;;;5085703;28;20024;-50
2022/03/13 07:05:46;;;;;;;3.92;2.95;;;;;;;;;;5084916;28;20078;-56
2022/03/13 07:08:12;;;;;;;3.85;2.50;;;;;;;;;;5084058;28;20071;-48
2022/03/13 07:10:39;;;;;;;3.20;2.45;;;;;;;;;;5086249;28;20020;-52
2022/03/13 07:13:05;;;;;;;3.55;2.83;;;;;;;;;;5084592;28;20056;-46
2022/03/13 07:15:32;;;;;;;4.55;2.78;;;;;;;;;;5078535;28;20118;-51
2022/03/13 07:17:58;;;;;;;3.85;2.70;;;;;;;;;;5075412;28;20028;-47
2022/03/13 07:20:24;;;;;;;7.22;2.50;;;;;;;;;;5074305;28;20449;-51
2022/03/13 07:22:50;;;;;;;4.25;2.50;;;;;;;;;;5075295;28;20035;-49
2022/03/13 07:25:16;;;;;;;4.78;3.53;;;;;;;;;;5074518;28;20052;-55
2022/03/13 07:27:43;;;;;;;6.00;3.28;;;;;;;;;;5075143;28;20017;-57
2022/03/13 07:30:12;;;;;;;5.38;2.80;;;;;;;;;;5091217;28;20073;-50
2022/03/13 07:32:40;;;;;;;5.35;3.00;;;;;;;;;;5089970;28;20036;-50
2022/03/13 07:35:06;;;;;;;7.18;3.05;;;;;;;;;;5095229;28;20018;-53
2022/03/13 07:37:32;;;;;;;5.32;2.90;;;;;;;;;;5080217;28;20461;-47
2022/03/13 07:40:00;;;;;;;6.13;3.10;;;;;;;;;;5095979;28;20024;-49
2022/03/13 07:42:26;;;;;;;4.10;2.85;;;;;;;;;;5095056;28;20488;-50
2022/03/13 07:44:53;;;;;;;4.80;2.90;;;;;;;;;;5094617;28;20024;-50
2022/03/13 07:47:19;;;;;;;6.32;3.15;;;;;;;;;;5094677;28;20043;-48
2022/03/13 07:49:45;;;;;;;4.30;2.50;;;;;;;;;;5078261;28;20025;-45
2022/03/13 07:52:12;;;;;;;5.28;2.90;;;;;;;;;;5065783;28;20035;-45
2022/03/13 07:54:38;;;;;;;5.38;2.72;;;;;;;;;;5075607;28;20052;-45
2022/03/13 07:57:04;;;;;;;5.97;2.60;;;;;;;;;;5074999;28;20054;-45
2022/03/13 07:59:30;;;;;;;4.65;2.80;;;;;;;;;;5072887;28;20404;-46
2022/03/13 08:01:56;;;;;;;7.53;3.35;;;;;;;;;;5074222;28;20020;-51
2022/03/13 08:04:24;;;;;;;5.38;3.05;;;;;;;;;;5076272;28;20029;-46
2022/03/13 08:06:50;;;;;;;4.22;2.90;;;;;;;;;;5081703;28;20111;-45
2022/03/13 08:09:16;;;;;;;4.70;2.35;;;;;;;;;;5087275;28;20072;-47
2022/03/13 08:11:43;;;;;;;4.63;2.67;;;;;;;;;;5093982;28;20023;-47
2022/03/13 08:14:12;;;;;;;3.38;2.35;;;;;;;;;;5097717;28;20399;-47
2022/03/13 08:16:38;;;;;;;4.80;3.13;;;;;;;;;;5093569;28;20044;-49
2022/03/13 08:19:05;;;;;;;6.72;2.92;;;;;;;;;;5094303;28;20036;-47
2022/03/13 08:21:31;;;;;;;4.53;2.97;;;;;;;;;;5092942;28;20017;-51
2022/03/13 08:23:58;;;;;;;5.03;2.70;;;;;;;;;;5094194;28;20119;-50
2022/03/13 08:26:24;;;;;;;4.80;3.25;;;;;;;;;;5093262;28;20024;-50
2022/03/13 08:28:50;;;;;;;11.95;3.55;;;;;;;;;;5093936;28;20426;-49
2022/03/13 08:31:17;;;;;;;4.75;3.13;;;;;;;;;;5093777;28;20039;-49
2022/03/13 08:33:44;;;;;;;7.15;3.28;;;;;;;;;;5093896;28;20024;-56
2022/03/13 08:36:10;;;;;;;4.57;3.17;;;;;;;;;;5094038;28;20369;-53
2022/03/13 08:38:36;;;;;;;4.05;2.45;;;;;;;;;;5093201;28;20074;-52
2022/03/13 08:41:02;;;;;;;4.97;2.75;;;;;;;;;;5094029;28;20028;-49
2022/03/13 08:43:28;;;;;;;4.15;3.05;;;;;;;;;;5091389;28;20542;-49
2022/03/13 08:45:54;;;;;;;5.80;2.92;;;;;;;;;;5073328;28;20036;-49
2022/03/13 08:48:20;;;;;;;4.70;2.90;;;;;;;;;;5071947;28;20028;-53
2022/03/13 08:50:46;;;;;;;6.18;3.05;;;;;;;;;;5072862;28;20102;-51
2022/03/13 08:53:12;;;;;;;4.00;2.90;;;;;;;;;;5091722;28;20032;-53
2022/03/13 08:55:38;;;;;;;5.15;2.63;;;;;;;;;;5092735;28;20031;-48
2022/03/13 08:58:04;;;;;;;4.22;2.35;;;;;;;;;;5093426;28;20036;-50
2022/03/13 09:00:32;;;;;;;3.60;2.33;;;;;;;;;;5092879;28;20097;-52
2022/03/13 09:02:58;;;;;;;5.13;2.78;;;;;;;;;;5093142;28;20477;-48
2022/03/13 09:05:24;;;;;;;5.38;3.25;;;;;;;;;;5092789;28;20035;-52
2022/03/13 09:07:50;;;;;;;3.58;2.60;;;;;;;;;;5093369;28;20032;-52
2022/03/13 09:10:17;;;;;;;3.83;2.95;;;;;;;;;;5092904;28;20512;-48
2022/03/13 09:12:43;;;;;;;4.50;2.65;;;;;;;;;;5092964;28;20032;-49
2022/03/13 09:15:09;;;;;;;7.45;3.78;;;;;;;;;;5092602;28;20031;-53
2022/03/13 09:17:36;;;;;;;4.93;2.88;;;;;;;;;;5092547;28;20024;-53
2022/03/13 09:20:03;;;;;;;4.18;2.83;;;;;;;;;;5092970;28;20031;-52
2022/03/13 09:22:30;;;;;;;3.90;2.55;;;;;;;;;;5091783;28;20031;-51
2022/03/13 09:24:57;;;;;;;8.10;3.17;;;;;;;;;;5092996;28;20366;-53
2022/03/13 09:27:24;;;;;;;5.32;2.80;;;;;;;;;;5092346;28;20369;-49
2022/03/13 09:29:50;;;;;;;6.05;3.00;;;;;;;;;;5093022;28;20419;-53
2022/03/13 09:32:16;;;;;;;4.43;2.80;;;;;;;;;;5092994;28;20542;-51
2022/03/13 09:34:42;;;;;;;4.68;3.03;;;;;;;;;;5092611;28;20035;-50
2022/03/13 09:37:08;;;;;;;2.97;2.58;;;;;;;;;;5092831;28;20504;-51
2022/03/13 09:39:34;;;;;;;3.95;2.88;;;;;;;;;;5092288;28;20026;-51
2022/03/13 09:42:00;;;;;;;4.47;3.03;;;;;;;;;;5092693;28;20066;-50
2022/03/13 09:44:28;;;;;;;4.15;2.42;;;;;;;;;;5081882;28;20029;-52
2022/03/13 09:46:54;;;;;;;4.38;2.70;;;;;;;;;;5072602;28;20074;-50
2022/03/13 09:49:21;;;;;;;4.80;3.53;;;;;;;;;;5071919;28;20028;-52
2022/03/13 09:51:47;;;;;;;4.80;3.10;;;;;;;;;;5079571;28;20028;-52
2022/03/13 09:54:13;;;;;;;4.07;3.17;;;;;;;;;;5092170;28;20040;-50
2022/03/13 09:56:40;;;;;;;4.90;2.60;;;;;;;;;;5091587;28;20020;-48
2022/03/13 09:59:07;;;;;;;3.50;2.38;;;;;;;;;;5092613;28;20027;-50
2022/03/13 10:01:33;;;;;;;4.30;2.70;;;;;;;;;;5074016;28;20068;-48
2022/03/13 10:04:00;;;;;;;5.45;3.00;;;;;;;;;;5092457;28;20103;-48
2022/03/13 10:06:26;;;;;;;4.60;3.10;;;;;;;;;;5091567;28;20111;-51
2022/03/13 10:08:52;;;;;;;6.13;3.33;;;;;;;;;;5092064;28;20024;-49
2022/03/13 10:11:32;;;;;;;4.72;3.22;;;;;;;;;;5092261;28;20020;-51
2022/03/13 10:14:06;;;;;;;3.97;2.60;;;;;;;;;;5091895;28;20502;-54
2022/03/13 10:16:36;;;;;;;5.22;2.97;;;;;;;;;;5091435;28;20496;-51
2022/03/13 10:19:18;;;;;;;5.97;3.22;;;;;;;;;;5092323;28;20365;-49
2022/03/13 10:22:07;;;;;;;5.03;3.50;;;;;;;;;;5090805;28;20024;-48
2022/03/13 10:24:40;;;;;;;4.82;2.65;;;;;;;;;;5078290;28;20086;-49
2022/03/13 10:27:10;;;;;;;3.65;2.58;;;;;;;;;;5092225;28;20121;-52
2022/03/13 10:29:36;;;;;;;6.05;3.20;;;;;;;;;;5091303;28;20346;-51
2022/03/13 10:32:03;;;;;;;4.53;3.17;;;;;;;;;;5092114;28;20020;-50
2022/03/13 10:34:29;;;;;;;5.10;3.03;;;;;;;;;;5091264;28;20111;-52
2022/03/13 10:36:55;;;;;;;4.53;3.13;;;;;;;;;;5092258;28;20059;-53
2022/03/13 10:39:21;;;;;;;3.40;2.72;;;;;;;;;;5091464;28;20469;-48
2022/03/13 10:41:53;;;;;;;4.60;2.97;;;;;;;;;;5091981;28;20046;-52
2022/03/13 10:44:22;;;;;;;3.88;3.08;;;;;;;;;;5082857;28;20033;-56
2022/03/13 10:46:58;;;;;;;4.78;2.72;;;;;;;;;;5071766;28;20033;-54
2022/03/13 10:49:36;;;;;;;6.88;3.15;;;;;;;;;;5070729;28;20016;-52
2022/03/13 10:52:03;;;;;;;4.72;2.95;;;;;;;;;;5080927;28;20023;-57
2022/03/13 10:54:31;;;;;;;4.40;3.00;;;;;;;;;;5090791;28;20837;-58
2022/03/13 10:57:23;;;;;;;4.35;2.97;;;;;;;;;;5091588;28;20024;-51
2022/03/13 11:00:08;;;;;;;9.95;3.10;;;;;;;;;;5087024;28;20040;-58
2022/03/13 11:02:34;;;;;;;6.72;3.58;;;;;;;;;;5090930;28;20032;-57
2022/03/13 11:05:00;;;;;;;6.43;4.32;;;;;;;;;;5091678;28;20031;-56
2022/03/13 11:07:27;;;;;;;8.93;4.63;;;;;;;;;;5088203;28;20016;-53
2022/03/13 11:09:56;;;;;;;6.78;4.22;;;;;;;;;;5091373;28;20426;-55
2022/03/13 11:12:23;;;;;;;4.65;3.22;;;;;;;;;;5091519;28;20085;-59
2022/03/13 11:14:50;;;;;;;12.32;3.78;;;;;;;;;;5091464;28;20024;-59
2022/03/13 11:17:18;;;;;;;5.30;3.40;;;;;;;;;;5091813;28;20079;-54
2022/03/13 11:19:45;;;;;;;7.57;4.03;;;;;;;;;;5091016;28;20031;-58
2022/03/13 11:22:12;;;;;;;6.97;3.58;;;;;;;;;;5069832;28;20453;-59
2022/03/13 11:24:39;;;;;;;9.35;3.70;;;;;;;;;;5070656;28;20029;-59
2022/03/13 11:27:08;;;;;;;5.50;2.75;;;;;;;;;;5071204;28;20104;-59
2022/03/13 11:29:44;;;;;;;5.50;3.10;;;;;;;;;;5070664;28;20024;-60
2022/03/13 11:32:29;;;;;;;10.65;5.35;;;;;;;;;;5070922;28;20536;-58
2022/03/13 11:35:13;;;;;;;7.80;3.70;;;;;;;;;;5073873;28;20024;-59
2022/03/13 11:37:40;;;;;;;8.07;3.65;;;;;;;;;;5074328;28;20032;-60
2022/03/13 11:40:07;;;;;;;8.60;4.18;;;;;;;;;;5074895;28;20059;-58
2022/03/13 11:42:49;;;;;;;5.03;3.58;;;;;;;;;;5074037;28;20070;-60
2022/03/13 11:45:30;;;;;;;6.65;3.42;;;;;;;;;;5090925;28;20031;-60
2022/03/13 11:48:05;;;;;;;9.63;4.55;;;;;;;;;;5095202;28;20422;-57
2022/03/13 11:50:47;;;;;;;8.18;4.40;;;;;;;;;;5094010;28;20027;-58
2022/03/13 11:53:17;;;;;;;6.50;3.67;;;;;;;;;;5075197;28;20060;-58
2022/03/13 11:55:58;;;;;;;6.22;3.83;;;;;;;;;;5073619;28;20147;-51
2022/03/13 11:58:40;;;;;;;12.93;6.30;;;;;;;;;;5074502;28;20031;-54
2022/03/13 12:01:09;;;;;;;26.23;8.53;;;;;;;;;;5074462;28;20367;-54
2022/03/13 12:03:36;;;;;;;17.58;7.95;;;;;;;;;;5073872;28;20024;-52
2022/03/13 12:06:03;;;;;;;11.63;4.82;;;;;;;;;;5074577;28;20020;-57
2022/03/13 12:08:47;;;;;;;25.23;7.82;;;;;;;;;;5073843;28;20424;-53
2022/03/13 12:11:38;;;;;;;14.38;5.75;;;;;;;;;;5074310;28;20106;-56
2022/03/13 12:14:07;;;;;;;15.85;6.35;;;;;;;;;;5074385;28;20055;-55
2022/03/13 12:16:33;;;;;;;18.50;5.82;;;;;;;;;;5073577;28;20504;-56
2022/03/13 12:18:59;;;;;;;15.00;5.93;;;;;;;;;;5074419;28;20025;-56
2022/03/13 12:21:26;;;;;;;12.93;5.18;;;;;;;;;;5077221;28;21290;-57
2022/03/13 12:23:58;;;;;;;12.23;5.88;;;;;;;;;;5074990;28;20484;-54
2022/03/13 12:26:33;;;;;;;12.63;5.43;;;;;;;;;;5074003;28;20031;-57
2022/03/13 12:29:00;;;;;;;13.50;6.13;;;;;;;;;;5074078;28;20052;-56
2022/03/13 12:31:26;;;;;;;14.20;6.32;;;;;;;;;;5074076;28;20090;-58
2022/03/13 12:33:58;;;;;;;15.52;6.43;;;;;;;;;;5055297;28;20032;-58
2022/03/13 12:36:24;;;;;;;;;;;;;;;;;;5074306;28;20029;-59
2022/03/13 12:38:52;;;;;;;14.25;6.00;;;;;;;;;;5073273;28;19900;-58
2022/03/13 12:41:18;;;;;;;11.73;5.63;;;;;;;;;;5073797;28;20389;-59
2022/03/13 12:43:57;;;;;;;13.23;6.32;;;;;;;;;;5054776;28;20082;-58
2022/03/13 12:46:27;;;;;;;12.82;5.63;;;;;;;;;;5073472;28;20060;-57
2022/03/13 12:48:58;;;;;;;10.70;5.22;;;;;;;;;;5073005;28;20017;-55
2022/03/13 12:51:24;;;;;;;;;;;;;;;;;;5073784;28;20457;-57
2022/03/13 12:53:53;;;;;;;10.88;5.13;;;;;;;;;;5072662;28;19970;-58
2022/03/13 12:56:19;;;;;;;11.20;5.57;;;;;;;;;;5073932;28;20021;-57
2022/03/13 12:58:45;;;;;;;9.93;4.40;;;;;;;;;;5073420;28;20082;-58
2022/03/13 13:01:21;;;;;;;9.45;5.30;;;;;;;;;;5073373;28;20411;-53
2022/03/13 13:03:53;;;;;;;9.32;4.05;;;;;;;;;;5072381;28;20032;-49
2022/03/13 13:06:29;;;;;;;13.23;5.43;;;;;;;;;;5073112;28;20025;-51
2022/03/13 13:08:55;;;;;;;10.25;4.70;;;;;;;;;;5073107;28;20032;-53
2022/03/13 13:11:29;;;;;;;9.05;4.88;;;;;;;;;;5073220;28;20027;-51
2022/03/13 13:13:59;;;;;;;8.98;4.63;;;;;;;;;;5072333;28;20063;-54
2022/03/13 13:16:30;;;;;;;8.60;4.30;;;;;;;;;;5073239;28;20109;-50
2022/03/13 13:18:57;;;;;;;7.88;4.47;;;;;;;;;;5072548;28;20078;-53
2022/03/13 13:21:32;;;;;;;10.23;4.82;;;;;;;;;;5072550;28;20024;-53
2022/03/13 13:23:58;;;;;;;11.45;5.40;;;;;;;;;;5072734;28;20032;-53
2022/03/13 13:26:42;;;;;;;10.52;4.70;;;;;;;;;;5073006;28;20017;-51
2022/03/13 13:29:08;;;;;;;7.75;4.82;;;;;;;;;;5072722;28;20436;-53
2022/03/13 13:31:34;;;;;;;11.70;5.65;;;;;;;;;;5072023;28;20108;-55
2022/03/13 13:34:15;;;;;;;9.70;5.63;;;;;;;;;;5073563;28;20032;-49
2022/03/13 13:36:42;;;;;;;9.40;5.03;;;;;;;;;;5071944;28;20028;-51
2022/03/13 13:39:08;;;;;;;8.13;4.60;;;;;;;;;;5072591;28;20032;-50
2022/03/13 13:41:35;;;;;;;9.27;5.32;;;;;;;;;;5071796;28;20028;-52
2022/03/13 13:44:03;;;;;;;9.02;3.97;;;;;;;;;;5078525;28;20099;-52
2022/03/13 13:46:32;;;;;;;6.32;3.80;;;;;;;;;;5093149;28;20107;-54
2022/03/13 13:48:59;;;;;;;9.85;5.13;;;;;;;;;;5092260;28;20020;-50
2022/03/13 13:51:28;;;;;;;10.02;4.88;;;;;;;;;;5088472;28;20528;-51
2022/03/13 13:54:05;;;;;;;7.20;4.68;;;;;;;;;;5071632;28;20134;-53
2022/03/13 13:56:36;;;;;;;8.95;4.57;;;;;;;;;;5071543;28;20040;-53
2022/03/13 13:59:21;;;;;;;6.68;3.78;;;;;;;;;;5072209;28;20044;-51
2022/03/13 14:01:48;;;;;;;6.63;4.18;;;;;;;;;;5071686;28;20051;-50
2022/03/13 14:04:15;;;;;;;6.13;4.00;;;;;;;;;;5070721;28;20029;-52
2022/03/13 14:06:42;;;;;;;8.90;5.20;;;;;;;;;;5071255;28;20035;-50
2022/03/13 14:09:08;;;;;;;8.35;5.13;;;;;;;;;;5071849;28;20485;-51
2022/03/13 14:11:35;;;;;;;8.52;3.92;;;;;;;;;;5071584;28;20157;-56
2022/03/13 14:14:03;;;;;;;7.65;4.53;;;;;;;;;;5071599;28;20540;-50
2022/03/13 14:16:29;;;;;;;7.63;4.22;;;;;;;;;;5071699;28;20544;-53
2022/03/13 14:18:55;;;;;;;7.72;4.20;;;;;;;;;;5070847;28;20085;-51
2022/03/13 14:21:21;;;;;;;13.20;4.60;;;;;;;;;;5075497;28;20012;-52
2022/03/13 14:23:47;;;;;;;8.57;4.60;;;;;;;;;;5091431;28;20024;-54
2022/03/13 14:26:13;;;;;;;8.93;3.88;;;;;;;;;;5092225;28;20461;-57
2022/03/13 14:28:39;;;;;;;9.43;4.32;;;;;;;;;;5091376;28;20028;-52
2022/03/13 14:31:06;;;;;;;14.68;4.80;;;;;;;;;;5091838;28;20020;-51
2022/03/13 14:33:32;;;;;;;18.40;4.95;;;;;;;;;;5092138;28;20036;-56
2022/03/13 14:36:01;;;;;;;13.70;5.38;;;;;;;;;;5091310;28;20039;-52
2022/03/13 14:38:28;;;;;;;16.55;6.18;;;;;;;;;;5073841;28;20463;-53
2022/03/13 14:40:54;;;;;;;12.80;5.25;;;;;;;;;;5091334;28;20024;-53
2022/03/13 14:43:21;;;;;;;9.93;4.80;;;;;;;;;;5091218;28;20423;-51
2022/03/13 14:45:51;;;;;;;13.70;4.30;;;;;;;;;;5070939;28;20032;-51
2022/03/13 14:48:18;;;;;;;13.38;4.32;;;;;;;;;;5071579;28;20541;-53